.
WxDataArchive / Data Records for 2011-09-20
2011-09-19 September 2011 2011-09-21

Data Records for Tuesday, 20 September 2011

Time	Temp	Chill	HIndex	Humid	Dewpt	 Wind 	HiWind	WindDir	Rain 	Barom 
-----	----	-----	------	-----	-----	------	------	-------	-----	----- 
00:00	62.0	62.0	62.0	87	58.1	0	0	---	0.00	30.008 
00:05	61.8	61.8	61.8	87	57.9	0	0	---	0.00	30.008 
00:10	61.8	61.8	61.8	87	57.9	0	1	292	0.00	30.008 
00:15	61.6	61.6	61.6	87	57.7	0	0	---	0.00	30.008 
00:20	61.6	61.6	61.6	87	57.7	0	1	292	0.00	30.008 
00:25	61.6	61.6	61.6	87	57.7	0	0	---	0.00	30.008 
00:30	61.6	61.6	61.6	88	58.0	0	0	---	0.00	30.010 
00:35	61.6	61.6	61.6	88	58.0	0	0	---	0.00	30.010 
00:40	61.5	61.5	61.5	88	57.9	0	0	---	0.00	30.010 
00:45	61.5	61.5	61.5	88	57.9	0	0	---	0.00	30.011 
00:50	61.5	61.5	61.5	88	57.9	0	0	---	0.00	30.011 
00:55	61.5	61.5	61.5	88	57.9	0	0	---	0.00	30.011 
01:00	61.3	61.3	61.3	88	57.7	0	0	---	0.00	30.008 
01:05	61.3	61.3	61.3	88	57.7	0	0	---	0.00	30.008 
01:10	61.3	61.3	61.3	89	58.0	0	0	---	0.00	30.008 
01:15	61.3	61.3	61.3	89	58.0	0	0	---	0.00	30.010 
01:20	61.3	61.3	61.3	89	58.0	0	0	---	0.00	30.010 
01:25	61.3	61.3	61.3	89	58.0	0	0	---	0.00	30.010 
01:30	61.2	61.2	61.2	89	57.9	0	0	---	0.00	30.010 
01:35	61.2	61.2	61.2	89	57.9	0	0	---	0.00	30.010 
01:40	61.2	61.2	61.2	89	57.9	0	0	---	0.00	30.010 
01:45	61.2	61.2	61.2	89	57.9	0	0	---	0.00	30.012 
01:50	61.2	61.2	61.2	89	57.9	0	0	---	0.00	30.012 
01:55	61.2	61.2	61.2	89	57.9	0	1	292	0.00	30.012 
02:00	61.2	61.2	61.2	89	57.9	0	0	---	0.00	30.014 
02:05	61.2	61.2	61.2	89	57.9	0	0	---	0.00	30.014 
02:10	61.2	61.2	61.2	89	57.9	0	0	---	0.00	30.014 
02:15	61.0	61.0	61.0	89	57.7	0	1	292	0.00	30.017 
02:20	61.0	61.0	61.0	89	57.7	0	1	292	0.00	30.017 
02:25	61.0	61.0	61.0	89	57.7	0	1	292	0.00	30.017 
02:30	60.9	60.9	60.9	89	57.6	0	1	292	0.00	30.023 
02:35	60.9	60.9	60.9	89	57.6	0	1	292	0.00	30.023 
02:40	60.7	60.7	60.7	90	57.7	0	1	292	0.00	30.023 
02:45	60.7	60.7	60.7	90	57.7	0	1	292	0.00	30.026 
02:50	60.5	60.5	60.5	90	57.5	0	1	292	0.00	30.026 
02:55	60.2	60.2	60.2	90	57.3	0	1	292	0.00	30.026 
03:00	60.1	60.1	60.1	90	57.2	0	0	---	0.00	30.026 
03:05	59.8	59.8	59.8	90	56.9	0	0	---	0.00	30.026 
03:10	59.5	59.5	59.5	90	56.6	0	0	---	0.00	30.026 
03:15	59.3	59.3	59.3	90	56.4	0	0	---	0.00	30.031 
03:20	59.0	59.0	59.0	91	56.4	0	0	---	0.00	30.031 
03:25	58.9	58.9	58.9	91	56.3	0	0	---	0.00	30.031 
03:30	58.6	58.6	58.6	91	56.0	0	0	---	0.00	30.031 
03:35	58.3	58.3	58.3	91	55.7	0	0	---	0.00	30.031 
03:40	58.1	58.1	58.1	91	55.5	0	0	---	0.00	30.031 
03:45	58.0	58.0	58.0	92	55.7	0	0	---	0.00	30.031 
03:50	57.8	57.8	57.8	92	55.5	0	0	---	0.00	30.031 
03:55	57.5	57.5	57.5	92	55.2	0	0	---	0.00	30.031 
04:00	57.3	57.3	57.3	92	55.0	0	0	---	0.00	30.031 
04:05	57.2	57.2	57.2	92	54.9	0	0	---	0.00	30.031 
04:10	56.9	56.9	56.9	92	54.6	0	0	---	0.00	30.031 
04:15	56.7	56.7	56.7	92	54.4	0	0	---	0.00	30.033 
04:20	56.6	56.6	56.6	92	54.3	0	0	---	0.00	30.033 
04:25	56.5	56.5	56.5	92	54.2	0	0	---	0.00	30.033 
04:30	56.3	56.3	56.3	93	54.3	0	0	---	0.00	30.034 
04:35	56.2	56.2	56.2	93	54.2	0	0	---	0.00	30.034 
04:40	56.0	56.0	56.0	93	54.0	0	0	---	0.00	30.034 
04:45	56.0	56.0	56.0	93	54.0	0	0	---	0.00	30.033 
04:50	55.7	55.7	55.7	93	53.7	0	0	---	0.00	30.033 
04:55	55.7	55.7	55.7	93	53.7	0	0	---	0.00	30.033 
05:00	55.7	55.7	55.7	93	53.7	0	0	---	0.00	30.038 
05:05	55.7	55.7	55.7	93	53.7	0	0	---	0.00	30.038 
05:10	55.6	55.6	55.6	94	53.9	0	0	---	0.00	30.038 
05:15	55.6	55.6	55.6	94	53.9	0	0	---	0.00	30.038 
05:20	55.4	55.4	55.4	94	53.7	0	0	---	0.00	30.038 
05:25	55.3	55.3	55.3	94	53.6	0	0	---	0.00	30.038 
05:30	55.1	55.1	55.1	94	53.4	0	0	---	0.00	30.046 
05:35	55.0	55.0	55.0	94	53.3	0	0	---	0.00	30.046 
05:40	54.7	54.7	54.7	94	53.0	0	0	---	0.00	30.046 
05:45	54.5	54.5	54.5	94	52.8	0	0	---	0.00	30.050 
05:50	54.2	54.2	54.2	94	52.5	0	0	---	0.00	30.050 
05:55	54.1	54.1	54.1	94	52.4	0	0	---	0.00	30.050 
06:00	54.1	54.1	54.1	94	52.4	0	0	---	0.00	30.057 
06:05	53.9	53.9	53.9	94	52.2	0	0	---	0.00	30.057 
06:10	53.8	53.8	53.8	94	52.1	0	0	---	0.00	30.057 
06:15	53.8	53.8	53.8	94	52.1	0	0	---	0.00	30.064 
06:20	53.8	53.8	53.8	95	52.4	0	0	---	0.00	30.064 
06:25	53.8	53.8	53.8	95	52.4	0	0	---	0.00	30.064 
06:30	53.8	53.8	53.8	95	52.4	0	0	---	0.00	30.067 
06:35	53.8	53.8	53.8	95	52.4	0	0	---	0.00	30.067 
06:40	53.5	53.5	53.5	94	51.8	0	0	---	0.00	30.067 
06:45	53.2	53.2	53.2	95	51.8	0	0	---	0.00	30.069 
06:50	53.1	53.1	53.1	95	51.7	0	0	---	0.00	30.069 
06:55	53.2	53.2	53.2	95	51.8	0	0	---	0.00	30.069 
07:00	53.3	53.3	53.3	95	51.9	0	0	---	0.00	30.075 
07:05	53.6	53.6	53.6	95	52.2	0	1	292	0.00	30.075 
07:10	53.9	53.9	53.9	95	52.5	0	0	---	0.00	30.075 
07:15	53.9	53.9	53.9	95	52.5	0	0	---	0.00	30.081 
07:20	54.1	54.1	54.1	95	52.7	0	0	---	0.00	30.081 
07:25	54.1	54.1	54.1	96	53.0	0	1	292	0.00	30.081 
07:30	53.9	53.9	53.9	95	52.5	0	2	292	0.00	30.085 
07:35	53.8	53.8	53.8	95	52.4	0	0	---	0.00	30.085 
07:40	53.6	53.6	53.6	95	52.2	0	2	292	0.00	30.085 
07:45	53.6	53.6	53.6	96	52.5	0	1	292	0.00	30.096 
07:50	53.5	53.5	53.5	96	52.4	0	1	292	0.00	30.096 
07:55	53.5	53.5	53.5	96	52.4	0	0	---	0.00	30.096 
08:00	53.5	53.5	53.5	96	52.4	0	0	---	0.00	30.097 
08:05	53.5	53.5	53.5	96	52.4	0	0	---	0.00	30.097 
08:10	53.6	53.6	53.6	96	52.5	0	3	112	0.00	30.097 
08:15	53.5	53.5	53.5	96	52.4	1	3	112	0.00	30.097 
08:20	53.5	53.5	53.5	96	52.4	0	1	112	0.00	30.097 
08:25	53.6	53.6	53.6	96	52.5	0	1	112	0.00	30.097 
08:30	53.8	53.8	53.8	96	52.7	0	1	112	0.00	30.098 
08:35	53.8	53.8	53.8	96	52.7	0	1	112	0.00	30.098 
08:40	53.8	53.8	53.8	96	52.7	0	1	112	0.00	30.098 
08:45	53.8	53.8	53.8	96	52.7	0	2	112	0.00	30.097 
08:50	53.8	53.8	53.8	96	52.7	0	2	112	0.00	30.097 
08:55	53.8	53.8	53.8	96	52.7	0	2	112	0.00	30.097 
09:00	53.9	53.9	53.9	96	52.8	0	1	112	0.00	30.098 
09:05	54.1	54.1	54.1	96	53.0	0	2	112	0.00	30.098 
09:10	54.2	54.2	54.2	96	53.1	0	3	112	0.00	30.098 
09:15	54.4	54.4	54.4	96	53.3	0	1	112	0.00	30.099 
09:20	54.7	54.7	54.7	96	53.6	0	1	112	0.00	30.099 
09:25	54.7	54.7	54.7	96	53.6	0	2	112	0.00	30.099 
09:30	54.8	54.8	54.8	96	53.7	0	2	112	0.00	30.099 
09:35	54.8	54.8	54.8	96	53.7	0	2	135	0.00	30.099 
09:40	55.0	55.0	55.0	97	54.2	0	2	135	0.00	30.099 
09:45	55.1	55.1	55.1	97	54.3	0	3	135	0.00	30.100 
09:50	55.3	55.3	55.3	97	54.5	0	3	135	0.00	30.100 
09:55	55.4	55.4	55.4	97	54.6	0	1	135	0.00	30.100 
10:00	55.7	55.7	55.7	97	54.9	1	3	135	0.00	30.100 
10:05	55.9	55.9	55.9	97	55.1	0	1	135	0.00	30.100 
10:10	56.0	56.0	56.0	97	55.2	0	2	135	0.00	30.100 
10:15	56.0	56.0	56.0	97	55.2	0	1	135	0.00	30.107 
10:20	56.2	56.2	56.2	97	55.4	0	3	135	0.00	30.107 
10:25	56.3	56.3	56.3	97	55.5	0	1	135	0.00	30.107 
10:30	56.3	56.3	56.3	97	55.5	0	1	135	0.00	30.110 
10:35	56.5	56.5	56.5	97	55.7	0	2	135	0.00	30.110 
10:40	56.6	56.6	56.6	97	55.8	0	1	135	0.00	30.110 
10:45	56.7	56.7	56.7	97	55.9	0	1	135	0.00	30.112 
10:50	56.9	56.9	56.9	97	56.1	0	1	135	0.00	30.112 
10:55	57.0	57.0	57.0	97	56.2	0	3	135	0.00	30.112 
11:00	57.0	57.0	57.0	97	56.2	0	1	135	0.00	30.109 
11:05	57.0	57.0	57.0	97	56.2	1	3	90	0.00	30.109 
11:10	57.2	57.2	57.2	97	56.4	0	3	90	0.00	30.109 
11:15	57.2	57.2	57.2	97	56.4	1	4	90	0.00	30.112 
11:20	57.5	57.5	57.5	97	56.7	0	1	90	0.00	30.112 
11:25	57.6	57.6	57.6	96	56.5	1	3	112	0.00	30.112 
11:30	57.8	57.8	57.8	96	56.7	0	4	112	0.00	30.106 
11:35	58.1	58.1	58.1	96	57.0	0	3	112	0.00	30.106 
11:40	58.4	58.4	58.4	96	57.3	0	1	112	0.00	30.106 
11:45	58.7	58.7	58.7	96	57.6	0	1	112	0.00	30.104 
11:50	59.0	59.0	59.0	96	57.9	1	4	112	0.00	30.104 
11:55	59.2	59.2	59.2	95	57.8	1	3	112	0.00	30.104 
12:00	59.3	59.3	59.3	95	57.9	0	2	112	0.00	30.106 
12:05	59.6	59.6	59.6	94	57.9	0	4	112	0.00	30.106 
12:10	60.2	60.2	60.2	94	58.5	0	2	112	0.00	30.106 
12:15	60.7	60.7	60.7	93	58.7	0	2	112	0.00	30.106 
12:20	60.9	60.9	60.9	91	58.3	1	2	112	0.00	30.106 
12:25	61.3	61.3	61.3	90	58.3	0	3	112	0.00	30.106 
12:30	62.0	62.0	62.0	88	58.4	1	3	112	0.00	30.102 
12:35	62.6	62.6	62.6	87	58.7	0	1	112	0.00	30.102 
12:40	63.5	63.5	63.5	85	58.9	0	2	112	0.00	30.102 
12:45	64.3	64.3	64.3	83	59.0	0	1	112	0.00	30.096 
12:50	65.0	65.0	65.0	81	59.0	0	1	112	0.00	30.096 
12:55	65.3	65.3	65.3	78	58.3	0	1	112	0.00	30.096 
13:00	66.0	66.0	66.0	77	58.6	0	3	248	0.00	30.092 
13:05	66.4	66.4	66.4	74	57.9	0	2	45	0.00	30.092 
13:10	66.4	66.4	66.4	74	57.9	0	2	45	0.00	30.092 
13:15	66.8	66.8	66.8	77	59.3	0	1	45	0.00	30.083 
13:20	67.1	67.1	67.1	72	57.8	1	4	90	0.00	30.083 
13:25	67.4	67.4	67.4	74	58.8	0	3	90	0.00	30.083 
13:30	67.8	67.8	67.8	70	57.6	1	3	90	0.00	30.084 
13:35	68.3	68.3	68.3	71	58.5	0	1	90	0.00	30.084 
13:40	68.8	68.8	68.8	71	59.0	0	3	90	0.00	30.084 
13:45	68.9	68.9	68.9	65	56.6	1	4	112	0.00	30.074 
13:50	68.8	68.8	68.8	65	56.5	2	6	112	0.00	30.074 
13:55	68.8	68.8	68.8	65	56.5	2	5	112	0.00	30.074 
14:00	68.8	68.8	68.8	64	56.1	2	4	90	0.00	30.073 
14:05	68.8	68.8	68.8	69	58.2	1	4	90	0.00	30.073 
14:10	69.1	69.1	69.1	66	57.3	1	2	90	0.00	30.073 
14:15	68.9	68.9	68.9	63	55.8	2	5	68	0.00	30.071 
14:20	69.4	69.4	69.4	63	56.2	0	2	68	0.00	30.071 
14:25	69.8	69.8	69.8	59	54.8	1	3	112	0.00	30.071 
14:30	69.6	69.6	69.6	61	55.5	2	6	68	0.00	30.065 
14:35	69.6	69.6	69.6	63	56.4	1	3	68	0.00	30.065 
14:40	69.8	69.8	69.8	61	55.7	1	3	68	0.00	30.065 
14:45	69.8	69.8	69.8	62	56.2	2	5	112	0.00	30.060 
14:50	69.8	69.8	69.8	60	55.3	1	4	112	0.00	30.060 
14:55	69.9	69.9	69.9	61	55.8	2	4	112	0.00	30.060 
15:00	69.9	69.9	69.9	64	57.2	2	5	112	0.00	30.058 
15:05	70.3	70.3	70.3	60	55.7	0	3	112	0.00	30.058 
15:10	70.6	70.6	70.6	59	55.6	0	2	112	0.00	30.058 
15:15	70.9	70.9	70.9	58	55.4	1	3	112	0.00	30.057 
15:20	70.9	70.9	70.9	59	55.8	1	4	112	0.00	30.057 
15:25	70.6	70.6	70.6	56	54.1	2	4	112	0.00	30.057 
15:30	70.6	70.6	70.6	58	55.1	0	2	112	0.00	30.049 
15:35	70.8	70.8	70.8	55	53.8	1	3	112	0.00	30.049 
15:40	70.9	70.9	70.9	55	53.9	0	1	112	0.00	30.049 
15:45	71.1	71.1	71.1	56	54.6	1	2	112	0.00	30.044 
15:50	70.9	70.9	70.9	59	55.8	1	3	112	0.00	30.044 
15:55	71.1	71.1	71.1	56	54.6	1	2	112	0.00	30.044 
16:00	71.5	71.5	71.5	57	55.5	0	1	112	0.00	30.040 
16:05	71.6	71.6	71.6	56	55.1	1	4	112	0.00	30.040 
16:10	71.3	71.3	71.3	57	55.3	1	2	112	0.00	30.040 
16:15	71.1	71.1	71.1	54	53.6	1	3	112	0.00	30.039 
16:20	70.9	70.9	70.9	56	54.4	1	2	112	0.00	30.039 
16:25	70.9	70.9	70.9	54	53.4	0	2	112	0.00	30.039 
16:30	71.1	71.1	71.1	56	54.6	0	3	112	0.00	30.031 
16:35	71.1	71.1	71.1	55	54.1	1	4	112	0.00	30.031 
16:40	71.1	71.1	71.1	52	52.6	1	3	112	0.00	30.031 
16:45	71.3	71.3	71.3	54	53.8	0	3	112	0.00	30.030 
16:50	71.3	71.3	71.3	55	54.3	0	3	112	0.00	30.030 
16:55	71.3	71.3	71.3	51	52.2	0	2	112	0.00	30.030 
17:00	71.5	71.5	71.5	53	53.5	0	2	112	0.00	30.027 
17:05	71.5	71.5	71.5	53	53.5	0	2	112	0.00	30.027 
17:10	71.5	71.5	71.5	47	50.2	0	3	112	0.00	30.027 
17:15	71.5	71.5	71.5	51	52.4	1	3	112	0.00	30.029 
17:20	71.3	71.3	71.3	52	52.8	0	2	112	0.00	30.029 
17:25	71.5	71.5	71.5	52	52.9	0	2	112	0.00	30.029 
17:30	71.5	71.5	71.5	52	52.9	0	0	---	0.00	30.027 
17:35	71.5	71.5	71.5	53	53.5	0	2	112	0.00	30.027 
17:40	71.5	71.5	71.5	55	54.5	0	1	112	0.00	30.027 
17:45	71.5	71.5	71.5	51	52.4	0	1	112	0.00	30.025 
17:50	71.5	71.5	71.5	51	52.4	0	0	---	0.00	30.025 
17:55	71.3	71.3	71.3	52	52.8	0	1	112	0.00	30.025 
18:00	71.3	71.3	71.3	53	53.3	0	1	112	0.00	30.022 
18:05	71.3	71.3	71.3	53	53.3	0	0	---	0.00	30.022 
18:10	71.1	71.1	71.1	54	53.6	0	3	112	0.00	30.022 
18:15	71.1	71.1	71.1	55	54.1	0	1	112	0.00	30.018 
18:20	70.9	70.9	70.9	55	53.9	0	2	112	0.00	30.018 
18:25	70.8	70.8	70.8	56	54.3	0	2	112	0.00	30.018 
18:30	70.6	70.6	70.6	56	54.1	0	2	112	0.00	30.021 
18:35	70.4	70.4	70.4	56	53.9	0	1	112	0.00	30.021 
18:40	70.4	70.4	70.4	57	54.4	0	1	112	0.00	30.021 
18:45	70.3	70.3	70.3	56	53.8	0	0	---	0.00	30.020 
18:50	70.1	70.1	70.1	56	53.7	0	1	112	0.00	30.020 
18:55	70.1	70.1	70.1	57	54.1	0	0	---	0.00	30.020 
19:00	69.8	69.8	69.8	57	53.9	0	0	---	0.00	30.025 
19:05	69.6	69.6	69.6	58	54.2	0	0	---	0.00	30.025 
19:10	69.4	69.4	69.4	58	54.0	0	0	---	0.00	30.025 
19:15	69.1	69.1	69.1	58	53.7	0	0	---	0.00	30.021 
19:20	68.9	68.9	68.9	59	54.0	0	0	---	0.00	30.021 
19:25	68.6	68.6	68.6	61	54.6	0	0	---	0.00	30.021 
19:30	68.3	68.3	68.3	62	54.8	0	1	112	0.00	30.021 
19:35	67.9	67.9	67.9	63	54.8	0	0	---	0.00	30.021 
19:40	67.4	67.4	67.4	64	54.8	0	0	---	0.00	30.021 
19:45	67.1	67.1	67.1	64	54.5	0	0	---	0.00	30.020 
19:50	66.6	66.6	66.6	66	54.9	0	0	---	0.00	30.020 
19:55	66.1	66.1	66.1	67	54.8	0	0	---	0.00	30.020 
20:00	65.8	65.8	65.8	68	54.9	0	0	---	0.00	30.020 
20:05	65.5	65.5	65.5	70	55.4	0	0	---	0.00	30.020 
20:10	65.0	65.0	65.0	72	55.7	0	0	---	0.00	30.020 
20:15	64.7	64.7	64.7	73	55.8	0	0	---	0.00	30.020 
20:20	64.3	64.3	64.3	73	55.5	0	0	---	0.00	30.020 
20:25	64.0	64.0	64.0	73	55.2	0	0	---	0.00	30.020 
20:30	63.7	63.7	63.7	75	55.6	0	0	---	0.00	30.020 
20:35	63.4	63.4	63.4	77	56.1	0	0	---	0.00	30.020 
20:40	63.1	63.1	63.1	77	55.8	0	0	---	0.00	30.020 
20:45	62.7	62.7	62.7	77	55.4	0	0	---	0.00	30.022 
20:50	62.6	62.6	62.6	78	55.6	0	0	---	0.00	30.022 
20:55	62.3	62.3	62.3	80	56.0	0	0	---	0.00	30.022 
21:00	62.3	62.3	62.3	81	56.4	0	0	---	0.00	30.021 
21:05	62.1	62.1	62.1	81	56.2	0	0	---	0.00	30.021 
21:10	62.1	62.1	62.1	81	56.2	0	0	---	0.00	30.021 
21:15	62.1	62.1	62.1	81	56.2	0	0	---	0.00	30.021 
21:20	62.0	62.0	62.0	81	56.1	0	0	---	0.00	30.021 
21:25	62.0	62.0	62.0	81	56.1	0	0	---	0.00	30.021 
21:30	61.8	61.8	61.8	81	55.9	0	0	---	0.00	30.021 
21:35	61.8	61.8	61.8	81	55.9	0	0	---	0.00	30.021 
21:40	61.6	61.6	61.6	81	55.7	0	0	---	0.00	30.021 
21:45	61.5	61.5	61.5	81	55.6	0	0	---	0.00	30.020 
21:50	61.3	61.3	61.3	81	55.4	0	0	---	0.00	30.020 
21:55	61.2	61.2	61.2	81	55.3	0	0	---	0.00	30.020 
22:00	61.0	61.0	61.0	82	55.5	0	0	---	0.00	30.023 
22:05	60.9	60.9	60.9	82	55.4	0	0	---	0.00	30.023 
22:10	60.7	60.7	60.7	82	55.2	0	0	---	0.00	30.023 
22:15	60.5	60.5	60.5	82	55.0	0	0	---	0.00	30.021 
22:20	60.4	60.4	60.4	83	55.2	0	0	---	0.00	30.021 
22:25	60.2	60.2	60.2	84	55.3	0	0	---	0.00	30.021 
22:30	60.1	60.1	60.1	84	55.2	0	0	---	0.00	30.023 
22:35	59.9	59.9	59.9	84	55.0	0	0	---	0.00	30.023 
22:40	59.9	59.9	59.9	84	55.0	0	0	---	0.00	30.023 
22:45	59.8	59.8	59.8	85	55.3	0	0	---	0.00	30.022 
22:50	59.5	59.5	59.5	86	55.3	0	0	---	0.00	30.022 
22:55	59.3	59.3	59.3	86	55.1	0	0	---	0.00	30.022 
23:00	59.3	59.3	59.3	87	55.4	0	0	---	0.00	30.023 
23:05	59.2	59.2	59.2	87	55.3	0	0	---	0.00	30.023 
23:10	59.2	59.2	59.2	88	55.6	0	0	---	0.00	30.023 
23:15	59.2	59.2	59.2	88	55.6	0	0	---	0.00	30.021 
23:20	59.2	59.2	59.2	88	55.6	0	0	---	0.00	30.021 
23:25	59.2	59.2	59.2	89	56.0	0	0	---	0.00	30.021 
23:30	59.3	59.3	59.3	89	56.1	0	0	---	0.00	30.021 
23:35	59.6	59.6	59.6	89	56.4	0	0	---	0.00	30.021 
23:40	59.8	59.8	59.8	89	56.5	0	0	---	0.00	30.021 
23:45	59.9	59.9	59.9	89	56.6	0	0	---	0.00	30.021 
23:50	59.9	59.9	59.9	89	56.6	0	0	---	0.00	30.021 
23:55	60.1	60.1	60.1	89	56.8	0	0	---	0.00	30.021 

CoCoRaHS
IN-AL-39
A2 Web Hosting
Creative Commons License
GoDaddy
search engine by freefind advanced

loaded 2018-11-22 06:04:49 • last modified 2010-11-18 10:43:29
Privacy PolicyDisclaimer
• wx.awcolley.com is powered by PmWiki v.2002016 •
• all content (unless otherwise noted) © 2018 A W Colley